Time;durP1;ratioP1;P1;durP2;ratioP2;P2;SDS_P1;SDS_P2;PMS_P1;PMS_P2;Temp;Humidity;BMP_temperature;BMP_pressure;BME280_temperature;BME280_humidity;BME280_pressure;Samples;Min_cycle;Max_cycle;Signal;HPM_P1;HPM_P2
2021/12/18 00:00:56;;;;;;;15.33;11.30;;;7.80;79.10;7.90;98302.00;;;;5093732;28;20237;-86
2021/12/18 00:03:24;;;;;;;15.67;11.83;;;7.80;79.00;7.90;98306.00;;;;5092472;28;20204;-86
2021/12/18 00:05:51;;;;;;;15.33;11.00;;;7.80;79.00;7.80;98312.00;;;;5092821;28;20226;-86
2021/12/18 00:08:18;;;;;;;15.27;11.30;;;7.80;79.00;7.80;98311.00;;;;5093235;28;20199;-86
2021/12/18 00:10:46;;;;;;;15.47;10.77;;;7.80;79.00;7.80;98305.00;;;;5093233;28;20254;-86
2021/12/18 00:13:13;;;;;;;14.13;10.63;;;7.80;79.10;7.80;98316.00;;;;5093374;28;20702;-86
2021/12/18 00:15:40;;;;;;;15.13;11.47;;;7.80;79.10;7.80;98309.00;;;;5091890;28;20223;-86
2021/12/18 00:18:09;;;;;;;16.07;11.60;;;7.70;79.10;7.70;98318.00;;;;5092223;28;20606;-86
2021/12/18 00:20:37;;;;;;;14.07;10.80;;;7.70;78.80;7.70;98318.00;;;;5092227;28;20210;-86
2021/12/18 00:23:05;;;;;;;16.13;11.37;;;7.70;78.80;7.70;98319.00;;;;5093139;28;20254;-85
2021/12/18 00:25:33;;;;;;;16.50;10.60;;;7.70;78.80;7.60;98316.00;;;;5079734;28;20685;-85
2021/12/18 00:28:00;;;;;;;16.77;11.00;;;7.70;78.90;7.70;98304.00;;;;5073052;28;20196;-86
2021/12/18 00:30:28;;;;;;;16.90;11.47;;;7.70;78.90;7.70;98306.00;;;;5093297;28;20202;-86
2021/12/18 00:32:55;;;;;;;16.47;12.07;;;7.70;79.10;7.70;98311.00;;;;5092711;28;20198;-86
2021/12/18 00:35:23;;;;;;;15.37;11.57;;;7.80;79.30;7.70;98303.00;;;;5091832;28;20215;-86
2021/12/18 00:37:50;;;;;;;14.83;11.27;;;7.70;79.30;7.70;98306.00;;;;5091947;28;20676;-85
2021/12/18 00:40:22;;;;;;;14.50;10.90;;;7.60;79.30;7.70;98308.00;;;;5088966;28;20196;-86
2021/12/18 00:42:56;;;;;;;15.37;10.87;;;7.60;79.40;7.70;98306.00;;;;5091138;28;20187;-86
2021/12/18 00:45:24;;;;;;;13.10;10.20;;;7.60;79.40;7.70;98307.00;;;;5091643;28;20306;-86
2021/12/18 00:47:52;;;;;;;14.43;11.00;;;7.60;79.40;7.70;98306.00;;;;5092194;28;20202;-86
2021/12/18 00:50:24;;;;;;;15.00;10.27;;;7.60;79.10;7.60;98312.00;;;;5090820;28;20196;-86
2021/12/18 00:52:51;;;;;;;13.77;10.27;;;7.60;79.20;7.60;98306.00;;;;5093771;28;20562;-85
2021/12/18 00:55:21;;;;;;;12.73;10.13;;;7.60;79.30;7.60;98317.00;;;;5095733;28;20231;-85
2021/12/18 00:57:49;;;;;;;15.73;10.70;;;7.60;79.30;7.70;98322.00;;;;5096660;28;20199;-86
2021/12/18 01:00:22;;;;;;;17.30;11.03;;;7.60;79.40;7.70;98331.00;;;;5096612;28;20580;-85
2021/12/18 01:02:52;;;;;;;17.97;11.03;;;7.60;79.50;7.70;98326.00;;;;5101192;28;20243;-86
2021/12/18 01:05:19;;;;;;;16.63;10.73;;;7.60;79.60;7.70;98330.00;;;;5098154;28;20227;-87
2021/12/18 01:07:48;;;;;;;14.83;11.03;;;7.60;79.50;7.70;98336.00;;;;5093996;28;20201;-85
2021/12/18 01:10:36;;;;;;;17.27;11.67;;;7.70;79.50;7.70;98337.00;;;;5086894;28;20218;-84
2021/12/18 01:13:05;;;;;;;15.60;11.23;;;7.60;79.70;7.60;98335.00;;;;5088120;28;20265;-86
2021/12/18 01:15:36;;;;;;;14.83;11.40;;;7.60;79.50;7.60;98341.00;;;;5087524;28;20696;-86
2021/12/18 01:23:35;;;;;;;14.13;10.10;;;7.50;79.70;7.50;98335.00;;;;5086145;28;20215;-85
2021/12/18 01:26:04;;;;;;;15.03;10.67;;;7.50;79.90;7.50;98339.00;;;;5093696;28;20549;-86
2021/12/18 01:28:32;;;;;;;17.43;11.80;;;7.50;79.90;7.50;98339.00;;;;5085296;28;20208;-86
2021/12/18 01:31:01;;;;;;;14.70;10.50;;;7.50;80.00;7.50;98345.00;;;;5090110;28;20200;-86
2021/12/18 01:33:28;;;;;;;13.40;10.67;;;7.50;80.20;7.60;98347.00;;;;5087105;28;20195;-86
2021/12/18 01:35:59;;;;;;;16.10;10.63;;;7.40;80.30;7.60;98345.00;;;;5074435;28;20193;-85
2021/12/18 01:38:28;;;;;;;15.30;10.33;;;7.50;80.30;7.60;98333.00;;;;5083714;28;20289;-86
2021/12/18 01:40:57;;;;;;;18.07;10.93;;;7.50;80.30;7.60;98328.00;;;;5094618;28;20244;-86
2021/12/18 01:46:14;;;;;;;16.13;11.87;;;7.50;80.20;7.70;98313.00;;;;5094394;28;20202;-87
2021/12/18 01:51:34;;;;;;;18.17;11.90;;;7.60;80.30;7.70;98302.00;;;;5083985;28;20222;-87
2021/12/18 01:54:02;;;;;;;17.63;11.57;;;7.60;80.30;7.70;98295.00;;;;5094100;28;20219;-87
2021/12/18 01:56:30;;;;;;;22.13;12.43;;;7.60;80.10;7.70;98294.00;;;;5077539;28;20195;-86
2021/12/18 01:58:57;;;;;;;16.43;11.00;;;7.60;80.10;7.70;98296.00;;;;5093953;28;20200;-86
2021/12/18 02:01:25;;;;;;;17.20;11.53;;;7.60;80.20;7.80;98312.00;;;;5094431;28;20203;-86
2021/12/18 02:03:52;;;;;;;16.37;11.37;;;7.60;80.40;7.80;98316.00;;;;5089395;28;20222;-86
2021/12/18 02:06:20;;;;;;;16.83;11.37;;;7.60;80.30;7.80;98323.00;;;;5090997;28;20195;-87
2021/12/18 02:08:47;;;;;;;16.30;11.77;;;7.60;80.20;7.90;98312.00;;;;5087726;28;20195;-86
2021/12/18 02:11:27;;;;;;;19.10;12.27;;;7.70;80.20;7.90;98321.00;;;;5098169;28;20210;-86
2021/12/18 02:14:09;;;;;;;22.27;13.10;;;7.70;80.20;7.90;98327.00;;;;5095487;28;20230;-86
2021/12/18 02:22:16;;;;;;;16.63;12.23;;;7.70;80.10;7.90;98321.00;;;;5074142;28;20204;-87
2021/12/18 02:24:43;;;;;;;18.67;12.70;;;7.80;80.20;7.90;98314.00;;;;5079683;28;20254;-86
2021/12/18 02:27:11;;;;;;;17.67;12.63;;;7.70;79.80;7.90;98320.00;;;;5084634;28;20191;-86
2021/12/18 02:29:39;;;;;;;19.97;13.10;;;7.70;79.60;7.80;98300.00;;;;5089055;28;20648;-86
2021/12/18 02:32:09;;;;;;;19.47;11.93;;;7.70;79.60;7.80;98306.00;;;;5094117;28;20196;-86
2021/12/18 02:34:38;;;;;;;15.03;10.93;;;7.70;79.70;7.70;98300.00;;;;5094422;28;20222;-86
2021/12/18 02:37:08;;;;;;;19.33;12.07;;;7.60;79.70;7.70;98292.00;;;;5094757;28;20203;-86
2021/12/18 02:42:21;;;;;;;19.10;12.50;;;7.60;79.80;7.60;98304.00;;;;5095330;28;20205;-86
2021/12/18 02:44:51;;;;;;;19.03;11.70;;;7.60;80.00;7.60;98291.00;;;;5089185;28;20266;-86
2021/12/18 02:47:19;;;;;;;20.37;11.93;;;7.50;80.10;7.70;98279.00;;;;5086245;28;20245;-86
2021/12/18 02:49:50;;;;;;;22.07;12.77;;;7.60;80.30;7.70;98282.00;;;;5086745;28;20188;-86
2021/12/18 02:52:19;;;;;;;22.97;12.63;;;7.90;80.40;7.70;98267.00;;;;5074455;28;20210;-86
2021/12/18 02:54:48;;;;;;;20.93;13.37;;;7.50;80.20;7.70;98269.00;;;;5079901;28;20310;-86
2021/12/18 02:57:15;;;;;;;17.20;12.23;;;7.50;80.40;7.70;98274.00;;;;5094685;28;20536;-86
2021/12/18 02:59:45;;;;;;;19.20;13.07;;;7.50;80.40;7.70;98270.00;;;;5094937;28;20198;-86
2021/12/18 03:02:14;;;;;;;25.73;12.53;;;7.50;80.50;7.70;98268.00;;;;5094119;28;20194;-86
2021/12/18 03:04:44;;;;;;;16.00;11.33;;;7.60;80.70;7.80;98265.00;;;;5094411;28;20303;-86
2021/12/18 03:07:14;;;;;;;17.63;12.63;;;7.60;80.70;7.80;98264.00;;;;5093999;28;20225;-86
2021/12/18 03:18:57;;;;;;;19.00;12.77;;;7.60;81.40;7.80;98259.00;;;;5094133;28;20213;-87
2021/12/18 03:23:49;;;;;;;26.47;13.47;;;7.70;80.90;7.90;98273.00;;;;5094382;28;20203;-87
2021/12/18 03:26:17;;;;;;;29.03;12.23;;;7.70;80.90;7.90;98264.00;;;;5081191;28;20573;-86
2021/12/18 03:28:45;;;;;;;18.27;12.27;;;7.70;80.70;7.90;98278.00;;;;5072547;28;20202;-86
2021/12/18 03:31:12;;;;;;;17.90;11.77;;;7.70;80.60;8.00;98278.00;;;;5085983;28;20206;-86
2021/12/18 03:33:39;;;;;;;17.60;11.90;;;7.70;80.70;8.00;98269.00;;;;5093772;28;20274;-87
2021/12/18 03:36:07;;;;;;;14.00;8.87;;;7.80;80.70;8.00;98278.00;;;;5093570;28;20217;-87
2021/12/18 03:38:35;;;;;;;17.13;9.97;;;8.20;80.80;8.00;98269.00;;;;5093685;28;20203;-86
2021/12/18 03:41:02;;;;;;;17.33;11.33;;;7.80;80.50;8.00;98265.00;;;;5093786;28;20205;-86
2021/12/18 03:43:29;;;;;;;28.23;12.50;;;7.80;80.50;8.00;98257.00;;;;5093551;28;20553;-86
2021/12/18 03:45:57;;;;;;;17.40;12.33;;;7.80;80.40;8.00;98262.00;;;;5093930;28;20210;-86
2021/12/18 03:48:24;;;;;;;17.67;11.30;;;8.10;80.60;8.00;98263.00;;;;5094738;28;20191;-87
2021/12/18 03:50:52;;;;;;;16.53;11.10;;;7.80;80.30;8.00;98260.00;;;;5094653;28;20192;-86
2021/12/18 03:53:20;;;;;;;15.20;11.43;;;7.80;80.30;8.00;98261.00;;;;5094491;28;20202;-86
2021/12/18 03:55:47;;;;;;;14.73;9.63;;;7.80;80.40;8.00;98257.00;;;;5082326;28;20234;-86
2021/12/18 03:58:14;;;;;;;16.53;9.30;;;7.80;80.50;8.00;98262.00;;;;5094401;28;20244;-86
2021/12/18 04:00:42;;;;;;;15.73;9.83;;;7.70;80.50;8.00;98274.00;;;;5093914;28;20187;-86
2021/12/18 04:03:10;;;;;;;12.93;9.00;;;7.70;80.20;7.90;98260.00;;;;5094262;28;20664;-86
2021/12/18 04:05:38;;;;;;;12.73;9.03;;;7.70;80.10;7.90;98267.00;;;;5094031;28;20314;-86
2021/12/18 04:08:11;;;;;;;15.37;9.70;;;7.70;80.30;7.90;98265.00;;;;5093578;28;20199;-87
2021/12/18 04:10:40;;;;;;;14.37;10.07;;;7.70;80.40;7.90;98261.00;;;;5073735;28;20192;-86
2021/12/18 04:13:09;;;;;;;13.00;9.43;;;7.70;80.40;7.90;98272.00;;;;5072471;28;20665;-85
2021/12/18 04:15:38;;;;;;;13.77;9.67;;;7.60;80.30;7.90;98272.00;;;;5071801;28;20220;-86
2021/12/18 04:18:05;;;;;;;13.07;9.37;;;7.70;80.50;7.90;98273.00;;;;5090932;28;20200;-87
2021/12/18 04:20:34;;;;;;;12.27;8.40;;;7.70;80.60;7.90;98285.00;;;;5095664;28;20203;-86
2021/12/18 04:23:03;;;;;;;11.77;8.33;;;8.10;80.90;7.90;98282.00;;;;5098932;28;20202;-86
2021/12/18 04:25:30;;;;;;;8.03;6.40;;;7.70;80.60;7.90;98273.00;;;;5095808;28;20230;-86
2021/12/18 04:27:57;;;;;;;9.67;6.03;;;7.70;80.50;7.90;98284.00;;;;5098854;28;20195;-86
2021/12/18 04:30:24;;;;;;;13.87;6.70;;;7.70;81.10;7.90;98291.00;;;;5099114;28;20198;-86
2021/12/18 04:32:51;;;;;;;8.83;6.40;;;7.60;80.20;7.90;98285.00;;;;5098751;28;20202;-86
2021/12/18 04:35:18;;;;;;;14.50;6.90;;;7.80;80.30;7.90;98278.00;;;;5098641;28;20223;-86
2021/12/18 04:37:47;;;;;;;8.37;6.87;;;7.70;80.10;8.00;98279.00;;;;5098635;28;20215;-85
2021/12/18 04:40:14;;;;;;;10.40;7.90;;;7.80;80.20;8.00;98286.00;;;;5098912;28;20676;-86
2021/12/18 04:42:41;;;;;;;11.77;7.70;;;7.80;80.20;8.00;98286.00;;;;5098844;28;20672;-86
2021/12/18 04:45:09;;;;;;;11.53;8.50;;;7.80;80.20;8.00;98279.00;;;;5098670;28;20272;-86
2021/12/18 04:47:36;;;;;;;15.40;8.23;;;7.80;80.20;8.00;98285.00;;;;5090150;28;20203;-86
2021/12/18 04:50:05;;;;;;;11.40;7.27;;;7.70;80.10;7.90;98291.00;;;;5099072;28;20206;-86
2021/12/18 04:52:32;;;;;;;12.33;8.20;;;7.80;80.10;7.90;98296.00;;;;5099224;28;20215;-86
2021/12/18 04:55:01;;;;;;;15.93;7.87;;;8.10;80.10;7.90;98290.00;;;;5101810;22;20231;-86
2021/12/18 04:57:28;;;;;;;11.27;7.60;;;7.70;79.90;8.00;98299.00;;;;5074450;28;20200;-86
2021/12/18 04:59:55;;;;;;;10.07;6.33;;;7.70;80.10;7.90;98295.00;;;;5093249;28;20191;-86
2021/12/18 05:02:33;;;;;;;10.17;5.90;;;7.70;80.00;7.90;98297.00;;;;5099720;28;20226;-86
2021/12/18 05:05:00;;;;;;;6.97;5.67;;;7.80;79.90;7.90;98292.00;;;;5093212;28;20280;-86
2021/12/18 05:07:28;;;;;;;9.17;6.00;;;7.70;79.70;7.90;98295.00;;;;5094895;28;20199;-86
2021/12/18 05:09:55;;;;;;;13.90;6.70;;;7.70;79.70;7.90;98286.00;;;;5082717;28;20196;-84
2021/12/18 05:12:23;;;;;;;8.33;5.80;;;7.70;79.70;7.90;98290.00;;;;5092976;28;20199;-84
2021/12/18 05:14:50;;;;;;;8.83;6.43;;;7.70;79.40;7.90;98285.00;;;;5089826;28;20226;-84
2021/12/18 05:17:17;;;;;;;9.13;6.27;;;7.70;79.60;7.90;98280.00;;;;5094394;28;20203;-85
2021/12/18 05:19:44;;;;;;;14.43;6.60;;;7.70;79.70;7.90;98260.00;;;;5080051;28;20200;-86
2021/12/18 05:22:11;;;;;;;8.60;6.33;;;7.70;79.80;7.90;98288.00;;;;5081339;28;20468;-86
2021/12/18 05:24:38;;;;;;;8.57;6.13;;;7.70;79.70;7.90;98289.00;;;;5089142;28;20685;-86
2021/12/18 05:27:05;;;;;;;10.03;5.67;;;7.70;79.90;7.90;98292.00;;;;5089503;28;20195;-86
2021/12/18 05:29:34;;;;;;;7.27;5.40;;;7.80;79.70;7.90;98288.00;;;;5094652;28;20202;-84
2021/12/18 05:32:01;;;;;;;9.27;5.53;;;7.70;79.60;7.80;98294.00;;;;5094257;28;20187;-84
2021/12/18 05:34:34;;;;;;;7.67;5.07;;;7.70;79.60;7.80;98296.00;;;;5090176;28;20215;-85
2021/12/18 05:37:18;;;;;;;5.67;5.03;;;7.60;79.20;7.70;98292.00;;;;5109729;28;20219;-85
2021/12/18 05:39:48;;;;;;;6.73;5.47;;;7.60;79.30;7.70;98298.00;;;;5089306;28;20542;-85
2021/12/18 05:42:15;;;;;;;9.03;6.00;;;7.60;79.40;7.70;98290.00;;;;5093259;28;20191;-85
2021/12/18 05:44:44;;;;;;;6.27;5.53;;;7.60;79.50;7.70;98293.00;;;;5093862;28;20227;-85
2021/12/18 05:47:12;;;;;;;7.57;6.00;;;7.50;79.30;7.70;98298.00;;;;5092299;28;20640;-85
2021/12/18 05:49:40;;;;;;;7.53;5.57;;;7.50;79.40;7.60;98291.00;;;;5094076;28;20290;-85
2021/12/18 05:52:08;;;;;;;6.47;5.03;;;7.50;79.30;7.60;98288.00;;;;5093339;28;20195;-85
2021/12/18 05:54:36;;;;;;;8.33;5.83;;;7.50;79.40;7.60;98304.00;;;;5093396;28;20609;-85
2021/12/18 05:57:05;;;;;;;8.13;5.83;;;7.50;79.70;7.70;98301.00;;;;5093458;28;20648;-85
2021/12/18 05:59:33;;;;;;;7.73;6.23;;;7.50;79.70;7.70;98306.00;;;;5094078;28;20238;-85
2021/12/18 06:02:01;;;;;;;13.83;7.10;;;7.50;79.80;7.70;98312.00;;;;5093512;28;20195;-85
2021/12/18 06:04:29;;;;;;;9.20;6.17;;;7.50;79.50;7.70;98304.00;;;;5093644;28;20219;-85
2021/12/18 06:07:03;;;;;;;8.57;6.27;;;7.50;79.50;7.70;98297.00;;;;5093079;28;20202;-85
2021/12/18 06:09:31;;;;;;;7.83;6.37;;;7.50;79.40;7.70;98301.00;;;;5090622;28;20299;-85
2021/12/18 06:11:58;;;;;;;10.03;6.43;;;7.50;79.40;7.70;98303.00;;;;5088083;28;20649;-85
2021/12/18 06:14:25;;;;;;;8.77;6.40;;;7.50;79.50;7.70;98308.00;;;;5091353;28;20212;-85
2021/12/18 06:16:52;;;;;;;9.90;6.20;;;7.50;79.40;7.70;98301.00;;;;5087780;28;20563;-85
2021/12/18 06:19:21;;;;;;;13.87;7.10;;;7.50;79.40;7.70;98300.00;;;;5092996;28;20206;-85
2021/12/18 06:21:48;;;;;;;9.37;6.53;;;7.60;79.30;7.70;98291.00;;;;5093746;28;20202;-85
2021/12/18 06:24:15;;;;;;;9.87;6.77;;;7.50;79.40;7.70;98305.00;;;;5084141;28;20587;-85
2021/12/18 06:26:44;;;;;;;6.43;5.67;;;7.50;79.50;7.70;98309.00;;;;5084865;28;20211;-85
2021/12/18 06:29:12;;;;;;;8.23;6.37;;;7.50;79.40;7.70;98299.00;;;;5086201;28;20659;-85
2021/12/18 06:31:40;;;;;;;6.87;5.80;;;7.50;79.20;7.70;98303.00;;;;5095267;28;20205;-85
2021/12/18 06:34:07;;;;;;;8.77;6.67;;;7.50;79.10;7.70;98294.00;;;;5093571;28;20224;-85
2021/12/18 06:36:35;;;;;;;13.17;6.00;;;7.50;79.10;7.70;98298.00;;;;5086029;28;20282;-85
2021/12/18 06:39:03;;;;;;;7.07;5.70;;;7.50;79.10;7.70;98291.00;;;;5090370;28;20202;-85
2021/12/18 06:41:30;;;;;;;9.97;6.07;;;7.50;79.10;7.70;98285.00;;;;5092815;28;20195;-85
2021/12/18 06:43:57;;;;;;;15.00;6.50;;;7.50;79.10;7.70;98290.00;;;;5091729;28;20674;-85
2021/12/18 06:46:24;;;;;;;10.77;7.00;;;7.50;78.90;7.70;98285.00;;;;5088807;28;20722;-84
2021/12/18 06:48:52;;;;;;;9.60;6.40;;;7.50;79.00;7.70;98284.00;;;;5084767;28;20562;-84
2021/12/18 06:51:20;;;;;;;8.03;6.37;;;7.50;79.10;7.70;98289.00;;;;5092691;28;20191;-84
2021/12/18 06:53:49;;;;;;;7.90;6.40;;;7.50;79.10;7.70;98302.00;;;;5072771;28;20196;-85
2021/12/18 06:56:16;;;;;;;11.63;7.27;;;7.50;78.90;7.80;98291.00;;;;5091656;28;20648;-85
2021/12/18 06:58:43;;;;;;;8.13;6.53;;;7.50;79.00;7.80;98290.00;;;;5093222;28;20207;-84
2021/12/18 07:01:10;;;;;;;9.33;6.63;;;7.50;79.00;7.80;98290.00;;;;5092877;28;20278;-84
2021/12/18 07:03:37;;;;;;;12.63;6.63;;;7.50;79.00;7.80;98293.00;;;;5091844;28;20201;-84
2021/12/18 07:06:04;;;;;;;8.57;6.47;;;7.50;79.00;7.80;98289.00;;;;5091705;28;20295;-84
2021/12/18 07:08:31;;;;;;;7.90;6.33;;;7.50;78.90;7.70;98287.00;;;;5092872;28;20201;-85
2021/12/18 07:11:00;;;;;;;8.40;6.67;;;7.50;79.00;7.80;98282.00;;;;5087233;28;20192;-85
2021/12/18 07:13:28;;;;;;;9.20;6.70;;;7.50;79.20;7.80;98289.00;;;;5073242;28;20211;-84
2021/12/18 07:15:56;;;;;;;8.07;6.10;;;7.50;79.20;7.80;98287.00;;;;5075009;28;20216;-84
2021/12/18 07:18:23;;;;;;;9.87;6.97;;;7.40;79.00;7.70;98301.00;;;;5093709;28;20203;-83
2021/12/18 07:20:51;;;;;;;9.13;6.43;;;7.40;78.90;7.70;98291.00;;;;5093012;28;20643;-83
2021/12/18 07:23:19;;;;;;;6.13;5.53;;;7.40;78.80;7.60;98292.00;;;;5093407;28;20225;-83
2021/12/18 07:25:46;;;;;;;7.17;6.27;;;7.40;78.90;7.70;98299.00;;;;5089154;28;20215;-84
2021/12/18 07:28:15;;;;;;;8.07;5.57;;;7.40;78.90;7.70;98300.00;;;;5093841;28;20202;-84
2021/12/18 07:30:42;;;;;;;9.03;6.60;;;7.50;79.10;7.70;98302.00;;;;5093074;28;20233;-84
2021/12/18 07:33:11;;;;;;;11.20;7.00;;;7.50;79.00;7.70;98314.00;;;;5092854;28;20559;-85
2021/12/18 07:35:40;;;;;;;12.67;6.80;;;7.50;79.00;7.70;98306.00;;;;5091304;28;20237;-84
2021/12/18 07:38:07;;;;;;;8.03;6.30;;;7.50;78.60;7.60;98301.00;;;;5091552;28;20202;-84
2021/12/18 07:40:35;;;;;;;8.27;6.17;;;7.40;78.70;7.60;98310.00;;;;5091653;28;20192;-83
2021/12/18 07:43:03;;;;;;;8.53;6.33;;;7.40;78.40;7.50;98297.00;;;;5092433;28;20202;-84
2021/12/18 07:45:33;;;;;;;8.80;7.17;;;7.40;78.50;7.50;98299.00;;;;5078293;28;20222;-84
2021/12/18 07:48:00;;;;;;;12.93;7.03;;;7.30;78.70;7.50;98304.00;;;;5081660;28;20191;-84
2021/12/18 07:50:28;;;;;;;9.30;6.90;;;7.30;78.80;7.50;98307.00;;;;5093008;28;20195;-84
2021/12/18 07:52:59;;;;;;;8.47;6.93;;;7.30;79.10;7.50;98308.00;;;;5092329;28;20191;-84
2021/12/18 07:55:28;;;;;;;10.33;7.77;;;7.30;79.00;7.50;98304.00;;;;5079922;28;20263;-84
2021/12/18 07:57:55;;;;;;;11.93;7.40;;;7.30;79.10;7.50;98315.00;;;;5072264;28;20207;-84
2021/12/18 08:00:23;;;;;;;10.10;6.97;;;7.30;78.90;7.50;98305.00;;;;5074511;28;20192;-84
2021/12/18 08:02:51;;;;;;;9.60;6.73;;;7.30;79.20;7.60;98310.00;;;;5076242;28;20804;-84
2021/12/18 08:05:19;;;;;;;8.87;7.00;;;7.30;79.20;7.60;98306.00;;;;5077423;28;20226;-84
2021/12/18 08:07:46;;;;;;;10.83;7.50;;;7.30;79.10;7.60;98311.00;;;;5096375;28;20183;-84
2021/12/18 08:10:14;;;;;;;10.47;7.43;;;7.30;79.10;7.60;98306.00;;;;5076910;28;20282;-84
2021/12/18 08:12:42;;;;;;;7.43;6.40;;;7.30;79.00;7.70;98309.00;;;;5081805;28;20193;-82
2021/12/18 08:15:10;;;;;;;8.60;6.83;;;7.30;79.10;7.70;98309.00;;;;5096458;28;20221;-84
2021/12/18 08:17:37;;;;;;;8.33;6.47;;;7.40;79.40;7.70;98313.00;;;;5096448;28;20195;-84
2021/12/18 08:20:08;;;;;;;8.47;6.77;;;7.40;79.20;7.80;98310.00;;;;5096316;28;20198;-83
2021/12/18 08:22:36;;;;;;;8.90;7.10;;;7.40;79.00;7.80;98314.00;;;;5096794;28;20298;-84
2021/12/18 08:25:04;;;;;;;14.53;7.47;;;7.40;79.10;7.80;98317.00;;;;5096073;28;20800;-84
2021/12/18 08:27:31;;;;;;;13.63;8.30;;;7.40;78.90;7.80;98314.00;;;;5097134;28;20207;-83
2021/12/18 08:29:58;;;;;;;10.47;8.13;;;7.50;79.10;7.80;98318.00;;;;5096689;28;20196;-83
2021/12/18 08:32:26;;;;;;;9.67;7.73;;;7.50;79.10;7.80;98310.00;;;;5098692;28;20568;-83
2021/12/18 08:34:53;;;;;;;9.53;7.30;;;7.50;79.00;7.80;98311.00;;;;5096052;28;20215;-82
2021/12/18 08:37:21;;;;;;;11.37;7.77;;;7.50;79.00;7.80;98318.00;;;;5096346;28;20227;-83
2021/12/18 08:39:48;;;;;;;11.03;8.80;;;7.50;78.90;7.80;98324.00;;;;5095489;28;20192;-82
2021/12/18 08:42:16;;;;;;;11.07;8.07;;;7.50;78.80;7.80;98317.00;;;;5095703;28;20200;-84
2021/12/18 08:44:43;;;;;;;16.37;10.57;;;7.50;78.90;7.80;98315.00;;;;5098454;28;20302;-83
2021/12/18 08:47:10;;;;;;;12.73;8.80;;;7.50;79.00;7.80;98319.00;;;;5095587;28;20715;-85
2021/12/18 08:49:38;;;;;;;10.73;7.67;;;7.50;79.00;7.70;98323.00;;;;5087406;28;20192;-84
2021/12/18 08:52:07;;;;;;;13.00;8.73;;;7.40;78.70;7.60;98317.00;;;;5087331;28;20192;-85
2021/12/18 08:54:35;;;;;;;10.70;7.93;;;7.40;78.70;7.60;98318.00;;;;5104493;28;20225;-86
2021/12/18 08:57:03;;;;;;;12.20;8.43;;;7.40;78.30;7.50;98309.00;;;;5110873;28;20263;-86
2021/12/18 08:59:30;;;;;;;11.47;7.63;;;7.30;78.40;7.40;98296.00;;;;5105603;28;20195;-85
2021/12/18 09:01:57;;;;;;;10.73;8.20;;;7.80;79.40;7.40;98301.00;;;;5101059;28;20683;-85
2021/12/18 09:04:24;;;;;;;12.67;8.50;;;7.60;78.80;7.40;98310.00;;;;5094047;28;20299;-85
2021/12/18 09:06:51;;;;;;;11.43;8.27;;;7.20;78.90;7.40;98301.00;;;;5083789;28;20216;-85
2021/12/18 09:09:18;;;;;;;9.10;7.40;;;8.20;79.60;7.50;98308.00;;;;5086269;28;20192;-85
2021/12/18 09:11:46;;;;;;;19.43;8.60;;;7.20;79.10;7.60;98314.00;;;;5085129;28;20196;-84
2021/12/18 09:14:14;;;;;;;10.53;7.83;;;7.30;79.20;7.60;98313.00;;;;5084411;28;20218;-84
2021/12/18 09:16:41;;;;;;;10.17;8.17;;;7.30;79.20;7.70;98311.00;;;;5085984;28;20207;-85
2021/12/18 09:19:08;;;;;;;10.30;8.07;;;7.40;79.20;7.80;98313.00;;;;5085327;28;20270;-84
2021/12/18 09:21:36;;;;;;;10.57;7.70;;;7.40;79.10;7.80;98318.00;;;;5089154;28;20684;-85
2021/12/18 09:24:03;;;;;;;9.77;7.73;;;7.50;78.90;7.80;98315.00;;;;5080381;28;20295;-84
2021/12/18 09:26:30;;;;;;;11.87;8.00;;;7.60;78.70;7.80;98315.00;;;;5093110;28;20216;-85
2021/12/18 09:28:59;;;;;;;12.10;8.03;;;7.50;78.50;7.80;98317.00;;;;5083055;28;20199;-84
2021/12/18 09:31:26;;;;;;;12.33;8.40;;;7.50;78.60;7.90;98319.00;;;;5089161;28;20571;-84
2021/12/18 09:33:54;;;;;;;11.40;7.57;;;7.60;78.70;7.90;98322.00;;;;5085476;28;20200;-84
2021/12/18 09:36:21;;;;;;;10.30;7.77;;;7.60;78.60;8.00;98314.00;;;;5085429;28;20279;-84
2021/12/18 09:38:48;;;;;;;10.27;7.57;;;7.70;78.70;8.00;98317.00;;;;5086181;28;20278;-83
2021/12/18 09:41:16;;;;;;;14.17;8.37;;;7.70;78.50;8.00;98316.00;;;;5083869;28;20196;-84
2021/12/18 09:43:43;;;;;;;10.27;7.87;;;7.70;78.30;8.00;98318.00;;;;5083483;28;20200;-83
2021/12/18 09:46:14;;;;;;;13.10;8.47;;;7.70;78.20;8.10;98320.00;;;;5084868;28;20231;-83
2021/12/18 09:48:44;;;;;;;9.70;7.70;;;7.80;78.30;8.10;98315.00;;;;5083838;28;20195;-82
2021/12/18 09:51:22;;;;;;;10.67;8.03;;;7.80;78.40;8.10;98316.00;;;;5084002;28;20584;-82
2021/12/18 09:53:51;;;;;;;10.30;8.40;;;7.80;78.30;8.10;98306.00;;;;5092492;28;20183;-84
2021/12/18 09:56:18;;;;;;;10.10;7.50;;;7.80;78.30;8.10;98299.00;;;;5087048;28;20207;-82
2021/12/18 09:58:45;;;;;;;11.90;8.07;;;7.80;78.40;8.20;98302.00;;;;5084720;28;20215;-84
2021/12/18 10:01:17;;;;;;;9.93;7.60;;;7.80;78.40;8.20;98304.00;;;;5082401;28;20199;-85
2021/12/18 10:03:48;;;;;;;14.53;8.37;;;7.90;78.20;8.20;98296.00;;;;5084555;28;20579;-84
2021/12/18 10:06:39;;;;;;;10.43;7.17;;;7.80;78.00;8.20;98292.00;;;;5085303;28;20215;-83
2021/12/18 10:09:10;;;;;;;10.77;7.53;;;7.90;77.70;8.20;98270.00;;;;5082918;28;20235;-84
2021/12/18 10:11:47;;;;;;;11.93;8.43;;;7.80;78.10;8.20;98280.00;;;;5082760;28;20657;-84
2021/12/18 10:14:16;;;;;;;11.47;8.07;;;7.70;78.10;8.20;98273.00;;;;5082213;28;20233;-85
2021/12/18 10:16:47;;;;;;;10.33;7.37;;;7.80;78.40;8.20;98275.00;;;;5082252;28;20195;-84
2021/12/18 10:19:27;;;;;;;12.53;8.57;;;7.80;78.10;8.20;98261.00;;;;5081571;28;20325;-84
2021/12/18 10:21:59;;;;;;;10.97;7.93;;;7.90;78.00;8.20;98262.00;;;;5079702;28;20217;-84
2021/12/18 10:24:28;;;;;;;10.33;7.60;;;7.90;78.20;8.20;98278.00;;;;5078415;28;20588;-84
2021/12/18 10:26:55;;;;;;;10.97;7.70;;;7.80;78.10;8.20;98275.00;;;;5082272;28;20215;-84
2021/12/18 10:29:34;;;;;;;11.00;7.83;;;7.80;78.10;8.20;98275.00;;;;5081541;28;20195;-84
2021/12/18 10:32:10;;;;;;;11.23;8.37;;;7.90;78.00;8.20;98267.00;;;;5083261;28;20605;-85
2021/12/18 10:34:41;;;;;;;10.70;7.87;;;7.90;78.10;8.20;98267.00;;;;5082581;28;20231;-85
2021/12/18 10:37:19;;;;;;;10.63;7.77;;;8.00;78.20;8.30;98260.00;;;;5084599;28;20202;-85
2021/12/18 10:39:57;;;;;;;11.27;8.20;;;7.90;78.20;8.30;98261.00;;;;5085823;28;20350;-84
2021/12/18 10:42:27;;;;;;;15.30;7.87;;;8.10;78.10;8.30;98261.00;;;;5079548;28;20195;-84
2021/12/18 10:45:17;;;;;;;10.20;7.83;;;7.90;77.90;8.40;98261.00;;;;5083039;28;20228;-85
2021/12/18 10:47:57;;;;;;;9.13;7.80;;;8.00;77.70;8.30;98261.00;;;;5086412;28;20220;-85
2021/12/18 10:50:31;;;;;;;9.27;7.13;;;8.00;77.60;8.30;98255.00;;;;5080103;28;20192;-83
2021/12/18 10:53:04;;;;;;;10.77;7.63;;;7.90;77.70;8.20;98255.00;;;;5085402;28;20552;-85
2021/12/18 10:55:37;;;;;;;12.93;7.40;;;7.90;77.70;8.20;98263.00;;;;5089519;28;20223;-85
2021/12/18 10:58:07;;;;;;;11.77;8.07;;;7.90;77.70;8.20;98260.00;;;;5087461;28;20199;-84
2021/12/18 11:00:42;;;;;;;11.20;8.13;;;7.90;77.80;8.20;98261.00;;;;5083784;28;20202;-84
2021/12/18 11:03:39;;;;;;;9.40;7.20;;;7.90;77.70;8.20;98264.00;;;;5088434;28;20205;-83
2021/12/18 11:06:12;;;;;;;12.87;7.50;;;7.80;77.30;8.20;98256.00;;;;5092703;28;20195;-84
2021/12/18 11:08:58;;;;;;;10.73;7.80;;;7.80;77.70;8.20;98245.00;;;;5072953;28;20192;-84
2021/12/18 11:14:15;;;;;;;10.93;7.87;;;7.80;77.40;8.10;98225.00;;;;5080915;28;20222;-83
2021/12/18 11:16:46;;;;;;;9.13;7.37;;;7.70;77.50;8.10;98238.00;;;;5075472;28;20203;-84
2021/12/18 11:19:18;;;;;;;10.57;7.43;;;7.80;77.90;8.10;98225.00;;;;5075957;28;20192;-85
2021/12/18 11:21:48;;;;;;;16.10;7.63;;;7.80;77.50;8.10;98221.00;;;;5086921;28;20195;-84
2021/12/18 11:24:17;;;;;;;8.17;6.73;;;7.80;77.50;8.20;98226.00;;;;5080984;28;20690;-84
2021/12/18 11:26:53;;;;;;;9.80;7.67;;;7.80;77.60;8.20;98220.00;;;;5079657;28;20745;-84
2021/12/18 11:29:27;;;;;;;9.97;7.53;;;7.90;77.70;8.20;98213.00;;;;5085471;28;20663;-84
2021/12/18 11:31:54;;;;;;;26.57;17.00;;;7.90;77.80;8.30;98213.00;;;;5091890;28;20196;-84
2021/12/18 11:34:24;;;;;;;13.93;8.40;;;7.90;77.80;8.30;98211.00;;;;5090944;28;20214;-86
2021/12/18 11:36:52;;;;;;;11.97;8.27;;;8.00;77.70;8.30;98202.00;;;;5091717;28;20687;-84
2021/12/18 11:39:24;;;;;;;10.57;7.60;;;7.90;77.60;8.30;98199.00;;;;5092140;28;20201;-83
2021/12/18 11:41:54;;;;;;;9.23;7.57;;;7.90;77.50;8.30;98201.00;;;;5092447;28;20188;-84
2021/12/18 11:44:27;;;;;;;13.63;8.13;;;7.90;77.60;8.30;98200.00;;;;5092393;28;20242;-84